sensor_id;sensor_type;location;lat;lon;timestamp;temperature;humidity
44509;DHT22;30214;52.246;14.408;2022-08-02T00:00:23;16.30;99.90
44509;DHT22;30214;52.246;14.408;2022-08-02T00:02:50;16.30;99.90
44509;DHT22;30214;52.246;14.408;2022-08-02T00:05:18;16.20;99.90
44509;DHT22;30214;52.246;14.408;2022-08-02T00:07:46;16.10;99.90
44509;DHT22;30214;52.246;14.408;2022-08-02T00:10:13;16.00;99.90
44509;DHT22;30214;52.246;14.408;2022-08-02T00:12:40;15.90;99.90
44509;DHT22;30214;52.246;14.408;2022-08-02T00:15:09;16.00;99.90
44509;DHT22;30214;52.246;14.408;2022-08-02T00:17:37;16.00;99.90
44509;DHT22;30214;52.246;14.408;2022-08-02T00:20:05;16.00;99.90
44509;DHT22;30214;52.246;14.408;2022-08-02T00:22:33;16.00;99.90
44509;DHT22;30214;52.246;14.408;2022-08-02T00:25:00;16.10;99.90
44509;DHT22;30214;52.246;14.408;2022-08-02T00:27:28;16.10;99.90
44509;DHT22;30214;52.246;14.408;2022-08-02T00:29:55;16.10;99.90
44509;DHT22;30214;52.246;14.408;2022-08-02T00:32:22;16.10;99.90
44509;DHT22;30214;52.246;14.408;2022-08-02T00:34:50;16.10;99.90
44509;DHT22;30214;52.246;14.408;2022-08-02T00:37:17;16.10;99.90
44509;DHT22;30214;52.246;14.408;2022-08-02T00:39:46;16.20;99.90
44509;DHT22;30214;52.246;14.408;2022-08-02T00:42:13;16.20;99.90
44509;DHT22;30214;52.246;14.408;2022-08-02T00:44:41;16.20;99.90
44509;DHT22;30214;52.246;14.408;2022-08-02T00:47:08;16.20;99.90
44509;DHT22;30214;52.246;14.408;2022-08-02T00:49:35;16.20;99.90
44509;DHT22;30214;52.246;14.408;2022-08-02T00:52:03;16.10;99.90
44509;DHT22;30214;52.246;14.408;2022-08-02T00:54:31;16.00;99.90
44509;DHT22;30214;52.246;14.408;2022-08-02T00:56:59;16.00;99.90
44509;DHT22;30214;52.246;14.408;2022-08-02T00:59:26;16.00;99.90
44509;DHT22;30214;52.246;14.408;2022-08-02T01:01:54;16.00;99.90
44509;DHT22;30214;52.246;14.408;2022-08-02T01:04:21;16.00;99.90
44509;DHT22;30214;52.246;14.408;2022-08-02T01:06:48;16.10;99.90
44509;DHT22;30214;52.246;14.408;2022-08-02T01:09:15;16.10;99.90
44509;DHT22;30214;52.246;14.408;2022-08-02T01:11:42;16.20;99.90
44509;DHT22;30214;52.246;14.408;2022-08-02T01:14:12;16.20;99.90
44509;DHT22;30214;52.246;14.408;2022-08-02T01:16:44;16.20;99.90
44509;DHT22;30214;52.246;14.408;2022-08-02T01:19:32;16.30;99.90
44509;DHT22;30214;52.246;14.408;2022-08-02T01:22:24;16.30;99.90
44509;DHT22;30214;52.246;14.408;2022-08-02T01:25:18;16.20;99.90
44509;DHT22;30214;52.246;14.408;2022-08-02T01:28:09;16.20;99.90
44509;DHT22;30214;52.246;14.408;2022-08-02T01:30:56;16.20;99.90
44509;DHT22;30214;52.246;14.408;2022-08-02T01:33:31;16.20;99.90
44509;DHT22;30214;52.246;14.408;2022-08-02T01:36:04;16.10;99.90
44509;DHT22;30214;52.246;14.408;2022-08-02T01:38:38;16.10;99.90
44509;DHT22;30214;52.246;14.408;2022-08-02T01:41:09;16.10;99.90
44509;DHT22;30214;52.246;14.408;2022-08-02T01:43:41;16.20;99.90
44509;DHT22;30214;52.246;14.408;2022-08-02T01:46:12;16.30;99.90
44509;DHT22;30214;52.246;14.408;2022-08-02T01:48:40;16.30;99.90
44509;DHT22;30214;52.246;14.408;2022-08-02T01:51:11;16.30;99.90
44509;DHT22;30214;52.246;14.408;2022-08-02T01:53:41;16.30;99.90
44509;DHT22;30214;52.246;14.408;2022-08-02T01:56:10;16.30;99.90
44509;DHT22;30214;52.246;14.408;2022-08-02T01:58:41;16.30;99.90
44509;DHT22;30214;52.246;14.408;2022-08-02T02:01:10;16.30;99.90
44509;DHT22;30214;52.246;14.408;2022-08-02T02:03:39;16.20;99.90
44509;DHT22;30214;52.246;14.408;2022-08-02T02:06:07;16.20;99.90
44509;DHT22;30214;52.246;14.408;2022-08-02T02:08:37;16.20;99.90
44509;DHT22;30214;52.246;14.408;2022-08-02T02:11:06;16.20;99.90
44509;DHT22;30214;52.246;14.408;2022-08-02T02:13:35;16.20;99.90
44509;DHT22;30214;52.246;14.408;2022-08-02T02:16:06;16.20;99.90
44509;DHT22;30214;52.246;14.408;2022-08-02T02:18:38;16.30;99.90
44509;DHT22;30214;52.246;14.408;2022-08-02T02:21:06;16.20;99.90
44509;DHT22;30214;52.246;14.408;2022-08-02T02:23:33;16.20;99.90
44509;DHT22;30214;52.246;14.408;2022-08-02T02:26:02;16.20;99.90
44509;DHT22;30214;52.246;14.408;2022-08-02T02:28:31;16.20;99.90
44509;DHT22;30214;52.246;14.408;2022-08-02T02:31:04;16.30;99.90
44509;DHT22;30214;52.246;14.408;2022-08-02T02:33:38;16.20;99.90
44509;DHT22;30214;52.246;14.408;2022-08-02T02:36:07;16.20;99.90
44509;DHT22;30214;52.246;14.408;2022-08-02T02:38:35;16.10;99.90
44509;DHT22;30214;52.246;14.408;2022-08-02T02:41:04;16.10;99.90
44509;DHT22;30214;52.246;14.408;2022-08-02T02:43:33;16.10;99.90
44509;DHT22;30214;52.246;14.408;2022-08-02T02:46:03;16.10;99.90
44509;DHT22;30214;52.246;14.408;2022-08-02T02:48:33;16.20;99.90
44509;DHT22;30214;52.246;14.408;2022-08-02T02:51:02;16.20;99.90
44509;DHT22;30214;52.246;14.408;2022-08-02T02:53:30;16.20;99.90
44509;DHT22;30214;52.246;14.408;2022-08-02T02:55:59;16.20;99.90
44509;DHT22;30214;52.246;14.408;2022-08-02T02:58:27;16.20;99.90
44509;DHT22;30214;52.246;14.408;2022-08-02T03:00:54;16.20;99.90
44509;DHT22;30214;52.246;14.408;2022-08-02T03:03:43;16.20;99.90
44509;DHT22;30214;52.246;14.408;2022-08-02T03:06:10;16.20;99.90
44509;DHT22;30214;52.246;14.408;2022-08-02T03:08:37;16.20;99.90
44509;DHT22;30214;52.246;14.408;2022-08-02T03:11:06;16.10;99.90
44509;DHT22;30214;52.246;14.408;2022-08-02T03:13:34;16.10;99.90
44509;DHT22;30214;52.246;14.408;2022-08-02T03:16:02;16.10;99.90
44509;DHT22;30214;52.246;14.408;2022-08-02T03:18:31;16.20;99.90
44509;DHT22;30214;52.246;14.408;2022-08-02T03:21:02;16.20;99.90
44509;DHT22;30214;52.246;14.408;2022-08-02T03:23:31;16.20;99.90
44509;DHT22;30214;52.246;14.408;2022-08-02T03:25:59;16.20;99.90
44509;DHT22;30214;52.246;14.408;2022-08-02T03:28:26;16.20;99.90
44509;DHT22;30214;52.246;14.408;2022-08-02T03:30:54;16.20;99.90
44509;DHT22;30214;52.246;14.408;2022-08-02T03:33:21;16.30;99.90
44509;DHT22;30214;52.246;14.408;2022-08-02T03:35:50;16.20;99.90
44509;DHT22;30214;52.246;14.408;2022-08-02T03:38:21;16.30;99.90
44509;DHT22;30214;52.246;14.408;2022-08-02T03:40:50;16.30;99.90
44509;DHT22;30214;52.246;14.408;2022-08-02T03:43:17;16.30;99.90
44509;DHT22;30214;52.246;14.408;2022-08-02T03:45:47;16.30;99.90
44509;DHT22;30214;52.246;14.408;2022-08-02T03:48:15;16.30;99.90
44509;DHT22;30214;52.246;14.408;2022-08-02T03:50:45;16.50;99.90
44509;DHT22;30214;52.246;14.408;2022-08-02T03:53:13;16.50;99.90
44509;DHT22;30214;52.246;14.408;2022-08-02T03:55:43;16.60;99.90
44509;DHT22;30214;52.246;14.408;2022-08-02T03:58:16;16.70;99.90
44509;DHT22;30214;52.246;14.408;2022-08-02T04:00:44;16.70;99.90
44509;DHT22;30214;52.246;14.408;2022-08-02T04:03:11;16.70;99.90
44509;DHT22;30214;52.246;14.408;2022-08-02T04:05:38;16.60;99.90
44509;DHT22;30214;52.246;14.408;2022-08-02T04:08:06;16.50;99.90
44509;DHT22;30214;52.246;14.408;2022-08-02T04:10:33;16.30;99.90
44509;DHT22;30214;52.246;14.408;2022-08-02T04:13:23;16.20;99.90
44509;DHT22;30214;52.246;14.408;2022-08-02T04:15:56;16.10;99.90
44509;DHT22;30214;52.246;14.408;2022-08-02T04:18:29;16.20;99.90
44509;DHT22;30214;52.246;14.408;2022-08-02T04:21:01;16.30;99.90
44509;DHT22;30214;52.246;14.408;2022-08-02T04:23:30;16.40;99.90
44509;DHT22;30214;52.246;14.408;2022-08-02T04:25:59;16.50;99.90
44509;DHT22;30214;52.246;14.408;2022-08-02T04:28:29;16.60;99.90
44509;DHT22;30214;52.246;14.408;2022-08-02T04:30:57;16.60;99.90
44509;DHT22;30214;52.246;14.408;2022-08-02T04:33:24;16.60;99.90
44509;DHT22;30214;52.246;14.408;2022-08-02T04:35:52;16.60;99.90
44509;DHT22;30214;52.246;14.408;2022-08-02T04:38:19;16.70;99.90
44509;DHT22;30214;52.246;14.408;2022-08-02T04:40:50;16.70;99.90
44509;DHT22;30214;52.246;14.408;2022-08-02T04:43:18;16.80;99.90
44509;DHT22;30214;52.246;14.408;2022-08-02T04:45:49;16.90;99.90
44509;DHT22;30214;52.246;14.408;2022-08-02T04:48:18;16.90;99.90
44509;DHT22;30214;52.246;14.408;2022-08-02T04:50:45;17.00;99.90
44509;DHT22;30214;52.246;14.408;2022-08-02T04:53:13;17.00;99.90
44509;DHT22;30214;52.246;14.408;2022-08-02T04:55:40;17.10;99.90
44509;DHT22;30214;52.246;14.408;2022-08-02T04:58:07;17.20;99.90
44509;DHT22;30214;52.246;14.408;2022-08-02T05:00:34;17.20;99.90
44509;DHT22;30214;52.246;14.408;2022-08-02T05:03:03;17.20;99.90
44509;DHT22;30214;52.246;14.408;2022-08-02T05:05:30;17.30;99.90
44509;DHT22;30214;52.246;14.408;2022-08-02T05:07:58;17.30;99.90
44509;DHT22;30214;52.246;14.408;2022-08-02T05:10:25;17.40;99.90
44509;DHT22;30214;52.246;14.408;2022-08-02T05:12:52;17.50;99.90
44509;DHT22;30214;52.246;14.408;2022-08-02T05:15:19;17.60;99.90
44509;DHT22;30214;52.246;14.408;2022-08-02T05:17:47;17.80;99.90
44509;DHT22;30214;52.246;14.408;2022-08-02T05:20:16;17.90;99.90
44509;DHT22;30214;52.246;14.408;2022-08-02T05:22:44;17.90;99.90
44509;DHT22;30214;52.246;14.408;2022-08-02T05:25:12;17.80;99.90
44509;DHT22;30214;52.246;14.408;2022-08-02T05:27:39;17.70;99.90
44509;DHT22;30214;52.246;14.408;2022-08-02T05:30:07;17.80;99.90
44509;DHT22;30214;52.246;14.408;2022-08-02T05:32:46;17.90;99.90
44509;DHT22;30214;52.246;14.408;2022-08-02T05:35:18;18.00;99.90
44509;DHT22;30214;52.246;14.408;2022-08-02T05:37:47;18.10;99.90
44509;DHT22;30214;52.246;14.408;2022-08-02T05:40:15;18.20;99.90
44509;DHT22;30214;52.246;14.408;2022-08-02T05:42:42;18.30;99.90
44509;DHT22;30214;52.246;14.408;2022-08-02T05:45:10;18.40;99.90
44509;DHT22;30214;52.246;14.408;2022-08-02T05:47:37;18.50;99.90
44509;DHT22;30214;52.246;14.408;2022-08-02T05:50:05;18.50;99.90
44509;DHT22;30214;52.246;14.408;2022-08-02T05:52:43;18.60;99.90
44509;DHT22;30214;52.246;14.408;2022-08-02T05:55:15;18.70;99.90
44509;DHT22;30214;52.246;14.408;2022-08-02T05:57:51;18.80;99.90
44509;DHT22;30214;52.246;14.408;2022-08-02T06:00:22;18.60;99.90
44509;DHT22;30214;52.246;14.408;2022-08-02T06:03:02;18.50;99.90
44509;DHT22;30214;52.246;14.408;2022-08-02T06:05:33;18.50;99.90
44509;DHT22;30214;52.246;14.408;2022-08-02T06:08:03;18.50;99.90
44509;DHT22;30214;52.246;14.408;2022-08-02T06:10:35;18.50;99.90
44509;DHT22;30214;52.246;14.408;2022-08-02T06:13:07;18.40;99.90
44509;DHT22;30214;52.246;14.408;2022-08-02T06:15:36;18.50;99.90
44509;DHT22;30214;52.246;14.408;2022-08-02T06:18:04;18.50;99.90
44509;DHT22;30214;52.246;14.408;2022-08-02T06:20:33;18.60;99.90
44509;DHT22;30214;52.246;14.408;2022-08-02T06:23:03;18.70;99.90
44509;DHT22;30214;52.246;14.408;2022-08-02T06:25:33;19.10;99.90
44509;DHT22;30214;52.246;14.408;2022-08-02T06:28:03;19.30;99.90
44509;DHT22;30214;52.246;14.408;2022-08-02T06:30:32;19.50;99.90
44509;DHT22;30214;52.246;14.408;2022-08-02T06:32:59;19.70;99.90
44509;DHT22;30214;52.246;14.408;2022-08-02T06:35:32;19.90;99.90
44509;DHT22;30214;52.246;14.408;2022-08-02T06:38:03;19.80;99.90
44509;DHT22;30214;52.246;14.408;2022-08-02T06:40:32;19.60;99.90
44509;DHT22;30214;52.246;14.408;2022-08-02T06:43:10;19.70;99.90
44509;DHT22;30214;52.246;14.408;2022-08-02T06:45:39;20.20;99.90
44509;DHT22;30214;52.246;14.408;2022-08-02T06:48:07;20.80;99.90
44509;DHT22;30214;52.246;14.408;2022-08-02T06:50:35;21.40;99.90
44509;DHT22;30214;52.246;14.408;2022-08-02T06:53:06;21.40;99.90
44509;DHT22;30214;52.246;14.408;2022-08-02T06:55:33;21.50;99.90
44509;DHT22;30214;52.246;14.408;2022-08-02T06:58:00;21.70;99.10
44509;DHT22;30214;52.246;14.408;2022-08-02T07:00:28;21.50;99.90
44509;DHT22;30214;52.246;14.408;2022-08-02T07:02:56;21.10;99.90
44509;DHT22;30214;52.246;14.408;2022-08-02T07:05:23;21.00;99.90
44509;DHT22;30214;52.246;14.408;2022-08-02T07:07:50;21.00;99.90
44509;DHT22;30214;52.246;14.408;2022-08-02T07:10:19;20.80;99.90
44509;DHT22;30214;52.246;14.408;2022-08-02T07:12:46;20.50;99.90
44509;DHT22;30214;52.246;14.408;2022-08-02T07:15:13;20.30;99.90
44509;DHT22;30214;52.246;14.408;2022-08-02T07:17:41;20.80;99.90
44509;DHT22;30214;52.246;14.408;2022-08-02T07:20:08;21.30;99.90
44509;DHT22;30214;52.246;14.408;2022-08-02T07:22:35;21.60;99.20
44509;DHT22;30214;52.246;14.408;2022-08-02T07:25:03;21.70;99.10
44509;DHT22;30214;52.246;14.408;2022-08-02T07:27:32;21.50;98.60
44509;DHT22;30214;52.246;14.408;2022-08-02T07:29:59;21.60;97.90
44509;DHT22;30214;52.246;14.408;2022-08-02T07:32:30;21.80;98.30
44509;DHT22;30214;52.246;14.408;2022-08-02T07:34:59;21.80;94.90
44509;DHT22;30214;52.246;14.408;2022-08-02T07:37:28;22.00;95.00
44509;DHT22;30214;52.246;14.408;2022-08-02T07:39:57;22.00;95.00
44509;DHT22;30214;52.246;14.408;2022-08-02T07:42:24;22.00;94.40
44509;DHT22;30214;52.246;14.408;2022-08-02T07:44:55;22.30;94.00
44509;DHT22;30214;52.246;14.408;2022-08-02T07:47:22;22.40;92.60
44509;DHT22;30214;52.246;14.408;2022-08-02T07:49:50;22.60;91.90
44509;DHT22;30214;52.246;14.408;2022-08-02T07:52:18;22.50;92.30
44509;DHT22;30214;52.246;14.408;2022-08-02T07:54:45;22.30;89.70
44509;DHT22;30214;52.246;14.408;2022-08-02T07:57:12;22.60;84.80
44509;DHT22;30214;52.246;14.408;2022-08-02T07:59:40;22.50;84.70
44509;DHT22;30214;52.246;14.408;2022-08-02T08:02:08;22.30;92.10
44509;DHT22;30214;52.246;14.408;2022-08-02T08:04:35;22.20;88.00
44509;DHT22;30214;52.246;14.408;2022-08-02T08:07:03;22.30;88.10
44509;DHT22;30214;52.246;14.408;2022-08-02T08:09:32;22.50;81.90
44509;DHT22;30214;52.246;14.408;2022-08-02T08:12:02;22.60;82.50
44509;DHT22;30214;52.246;14.408;2022-08-02T08:14:30;22.30;85.20
44509;DHT22;30214;52.246;14.408;2022-08-02T08:16:57;22.20;82.80
44509;DHT22;30214;52.246;14.408;2022-08-02T08:19:26;22.40;84.70
44509;DHT22;30214;52.246;14.408;2022-08-02T08:21:53;22.80;82.60
44509;DHT22;30214;52.246;14.408;2022-08-02T08:24:21;23.30;80.40
44509;DHT22;30214;52.246;14.408;2022-08-02T08:26:48;23.70;77.70
44509;DHT22;30214;52.246;14.408;2022-08-02T08:29:15;23.90;79.40
44509;DHT22;30214;52.246;14.408;2022-08-02T08:31:42;24.00;75.70
44509;DHT22;30214;52.246;14.408;2022-08-02T08:34:10;23.80;77.30
44509;DHT22;30214;52.246;14.408;2022-08-02T08:36:38;23.30;77.50
44509;DHT22;30214;52.246;14.408;2022-08-02T08:39:06;23.10;80.00
44509;DHT22;30214;52.246;14.408;2022-08-02T08:41:34;23.30;80.10
44509;DHT22;30214;52.246;14.408;2022-08-02T08:44:02;23.40;80.30
44509;DHT22;30214;52.246;14.408;2022-08-02T08:46:32;23.30;79.60
44509;DHT22;30214;52.246;14.408;2022-08-02T08:49:05;23.70;81.70
44509;DHT22;30214;52.246;14.408;2022-08-02T08:51:36;24.00;82.10
44509;DHT22;30214;52.246;14.408;2022-08-02T08:54:10;24.00;80.80
44509;DHT22;30214;52.246;14.408;2022-08-02T08:56:41;23.90;76.80
44509;DHT22;30214;52.246;14.408;2022-08-02T08:59:09;23.70;78.80
44509;DHT22;30214;52.246;14.408;2022-08-02T09:01:36;23.70;82.60
44509;DHT22;30214;52.246;14.408;2022-08-02T09:04:04;23.50;83.10
44509;DHT22;30214;52.246;14.408;2022-08-02T09:06:31;23.50;81.90
44509;DHT22;30214;52.246;14.408;2022-08-02T09:09:00;23.30;82.60
44509;DHT22;30214;52.246;14.408;2022-08-02T09:11:27;23.30;83.30
44509;DHT22;30214;52.246;14.408;2022-08-02T09:13:56;23.40;84.30
44509;DHT22;30214;52.246;14.408;2022-08-02T09:16:33;23.50;81.60
44509;DHT22;30214;52.246;14.408;2022-08-02T09:19:15;23.60;83.50
44509;DHT22;30214;52.246;14.408;2022-08-02T09:21:44;23.50;83.30
44509;DHT22;30214;52.246;14.408;2022-08-02T09:24:19;23.60;83.20
44509;DHT22;30214;52.246;14.408;2022-08-02T09:26:48;23.90;82.80
44509;DHT22;30214;52.246;14.408;2022-08-02T09:29:20;24.00;80.40
44509;DHT22;30214;52.246;14.408;2022-08-02T09:31:48;24.20;80.80
44509;DHT22;30214;52.246;14.408;2022-08-02T09:34:16;24.20;82.60
44509;DHT22;30214;52.246;14.408;2022-08-02T09:36:45;24.20;83.60
44509;DHT22;30214;52.246;14.408;2022-08-02T09:39:14;24.40;90.60
44509;DHT22;30214;52.246;14.408;2022-08-02T09:41:44;24.20;81.50
44509;DHT22;30214;52.246;14.408;2022-08-02T09:44:12;24.00;88.20
44509;DHT22;30214;52.246;14.408;2022-08-02T09:46:42;24.20;83.10
44509;DHT22;30214;52.246;14.408;2022-08-02T09:49:11;24.70;76.90
44509;DHT22;30214;52.246;14.408;2022-08-02T09:51:40;24.90;75.80
44509;DHT22;30214;52.246;14.408;2022-08-02T09:54:16;25.40;77.90
44509;DHT22;30214;52.246;14.408;2022-08-02T09:56:47;25.50;78.20
44509;DHT22;30214;52.246;14.408;2022-08-02T09:59:17;25.00;77.50
44509;DHT22;30214;52.246;14.408;2022-08-02T10:01:47;24.80;79.20
44509;DHT22;30214;52.246;14.408;2022-08-02T10:04:19;24.60;82.20
44509;DHT22;30214;52.246;14.408;2022-08-02T10:06:48;24.40;77.80
44509;DHT22;30214;52.246;14.408;2022-08-02T10:09:16;24.80;80.00
44509;DHT22;30214;52.246;14.408;2022-08-02T10:11:45;25.40;75.30
44509;DHT22;30214;52.246;14.408;2022-08-02T10:14:14;25.80;75.20
44509;DHT22;30214;52.246;14.408;2022-08-02T10:16:43;26.20;68.70
44509;DHT22;30214;52.246;14.408;2022-08-02T10:19:10;26.30;68.60
44509;DHT22;30214;52.246;14.408;2022-08-02T10:21:43;26.70;66.50
44509;DHT22;30214;52.246;14.408;2022-08-02T10:24:14;26.90;64.00
44509;DHT22;30214;52.246;14.408;2022-08-02T10:26:46;27.00;61.00
44509;DHT22;30214;52.246;14.408;2022-08-02T10:29:17;27.00;65.20
44509;DHT22;30214;52.246;14.408;2022-08-02T10:31:52;27.00;68.90
44509;DHT22;30214;52.246;14.408;2022-08-02T10:34:29;27.00;65.50
44509;DHT22;30214;52.246;14.408;2022-08-02T10:37:01;27.20;65.90
44509;DHT22;30214;52.246;14.408;2022-08-02T10:39:37;27.20;65.10
44509;DHT22;30214;52.246;14.408;2022-08-02T10:42:10;26.90;69.50
44509;DHT22;30214;52.246;14.408;2022-08-02T10:44:43;27.00;64.00
44509;DHT22;30214;52.246;14.408;2022-08-02T10:47:28;27.20;67.60
44509;DHT22;30214;52.246;14.408;2022-08-02T10:49:56;27.20;66.70
44509;DHT22;30214;52.246;14.408;2022-08-02T10:52:25;27.40;63.50
44509;DHT22;30214;52.246;14.408;2022-08-02T10:54:56;27.60;60.80
44509;DHT22;30214;52.246;14.408;2022-08-02T10:57:26;27.50;62.90
44509;DHT22;30214;52.246;14.408;2022-08-02T10:59:56;27.10;61.00
44509;DHT22;30214;52.246;14.408;2022-08-02T11:02:39;27.10;60.90
44509;DHT22;30214;52.246;14.408;2022-08-02T11:05:13;27.30;58.90
44509;DHT22;30214;52.246;14.408;2022-08-02T11:07:42;27.50;61.60
44509;DHT22;30214;52.246;14.408;2022-08-02T11:10:37;27.60;61.20
44509;DHT22;30214;52.246;14.408;2022-08-02T11:13:10;27.80;58.50
44509;DHT22;30214;52.246;14.408;2022-08-02T11:15:56;27.90;57.50
44509;DHT22;30214;52.246;14.408;2022-08-02T11:19:01;27.70;57.50
44509;DHT22;30214;52.246;14.408;2022-08-02T11:21:31;27.60;59.70
44509;DHT22;30214;52.246;14.408;2022-08-02T11:24:24;27.50;57.80
44509;DHT22;30214;52.246;14.408;2022-08-02T11:26:54;27.20;57.50
44509;DHT22;30214;52.246;14.408;2022-08-02T11:29:33;26.80;58.70
44509;DHT22;30214;52.246;14.408;2022-08-02T11:32:01;26.90;59.90
44509;DHT22;30214;52.246;14.408;2022-08-02T11:34:30;27.00;59.50
44509;DHT22;30214;52.246;14.408;2022-08-02T11:36:59;27.10;58.10
44509;DHT22;30214;52.246;14.408;2022-08-02T11:39:26;27.60;58.80
44509;DHT22;30214;52.246;14.408;2022-08-02T11:41:55;28.00;59.30
44509;DHT22;30214;52.246;14.408;2022-08-02T11:44:24;28.40;57.80
44509;DHT22;30214;52.246;14.408;2022-08-02T11:46:58;28.60;54.60
44509;DHT22;30214;52.246;14.408;2022-08-02T11:49:26;28.50;54.90
44509;DHT22;30214;52.246;14.408;2022-08-02T11:51:56;28.40;55.30
44509;DHT22;30214;52.246;14.408;2022-08-02T11:54:31;28.40;54.80
44509;DHT22;30214;52.246;14.408;2022-08-02T11:57:11;28.50;52.60
44509;DHT22;30214;52.246;14.408;2022-08-02T11:59:41;28.50;52.30
44509;DHT22;30214;52.246;14.408;2022-08-02T12:02:10;28.50;53.30
44509;DHT22;30214;52.246;14.408;2022-08-02T12:04:38;28.30;58.10
44509;DHT22;30214;52.246;14.408;2022-08-02T12:07:07;28.30;56.90
44509;DHT22;30214;52.246;14.408;2022-08-02T12:09:35;28.20;58.80
44509;DHT22;30214;52.246;14.408;2022-08-02T12:12:03;28.00;58.50
44509;DHT22;30214;52.246;14.408;2022-08-02T12:14:31;27.80;58.20
44509;DHT22;30214;52.246;14.408;2022-08-02T12:17:07;27.40;57.40
44509;DHT22;30214;52.246;14.408;2022-08-02T12:19:54;26.80;62.40
44509;DHT22;30214;52.246;14.408;2022-08-02T12:22:24;26.50;64.90
44509;DHT22;30214;52.246;14.408;2022-08-02T12:24:54;26.60;61.60
44509;DHT22;30214;52.246;14.408;2022-08-02T12:27:34;27.20;62.10
44509;DHT22;30214;52.246;14.408;2022-08-02T12:30:05;27.80;56.90
44509;DHT22;30214;52.246;14.408;2022-08-02T12:32:34;27.90;55.70
44509;DHT22;30214;52.246;14.408;2022-08-02T12:35:08;27.80;55.40
44509;DHT22;30214;52.246;14.408;2022-08-02T12:37:38;27.90;53.80
44509;DHT22;30214;52.246;14.408;2022-08-02T12:40:18;28.10;54.00
44509;DHT22;30214;52.246;14.408;2022-08-02T12:42:48;28.30;53.40
44509;DHT22;30214;52.246;14.408;2022-08-02T12:45:20;28.50;52.00
44509;DHT22;30214;52.246;14.408;2022-08-02T12:47:50;28.70;51.10
44509;DHT22;30214;52.246;14.408;2022-08-02T12:50:23;28.90;50.00
44509;DHT22;30214;52.246;14.408;2022-08-02T12:53:03;28.70;50.50
44509;DHT22;30214;52.246;14.408;2022-08-02T12:55:32;28.50;52.10
44509;DHT22;30214;52.246;14.408;2022-08-02T12:58:02;28.40;52.50
44509;DHT22;30214;52.246;14.408;2022-08-02T13:00:32;28.50;53.60
44509;DHT22;30214;52.246;14.408;2022-08-02T13:03:01;28.60;52.10
44509;DHT22;30214;52.246;14.408;2022-08-02T13:05:33;28.50;51.10
44509;DHT22;30214;52.246;14.408;2022-08-02T13:08:01;28.60;52.10
44509;DHT22;30214;52.246;14.408;2022-08-02T13:10:30;28.80;52.80
44509;DHT22;30214;52.246;14.408;2022-08-02T13:12:57;29.10;51.00
44509;DHT22;30214;52.246;14.408;2022-08-02T13:15:24;29.10;50.70
44509;DHT22;30214;52.246;14.408;2022-08-02T13:17:52;29.20;48.80
44509;DHT22;30214;52.246;14.408;2022-08-02T13:20:19;29.20;51.70
44509;DHT22;30214;52.246;14.408;2022-08-02T13:22:48;29.10;49.90
44509;DHT22;30214;52.246;14.408;2022-08-02T13:25:16;29.00;50.40
44509;DHT22;30214;52.246;14.408;2022-08-02T13:27:45;28.80;50.00
44509;DHT22;30214;52.246;14.408;2022-08-02T13:30:12;28.90;51.20
44509;DHT22;30214;52.246;14.408;2022-08-02T13:32:39;28.90;48.80
44509;DHT22;30214;52.246;14.408;2022-08-02T13:35:07;28.90;49.60
44509;DHT22;30214;52.246;14.408;2022-08-02T13:37:34;29.10;49.70
44509;DHT22;30214;52.246;14.408;2022-08-02T13:40:03;29.00;50.60
44509;DHT22;30214;52.246;14.408;2022-08-02T13:42:31;29.20;51.10
44509;DHT22;30214;52.246;14.408;2022-08-02T13:44:58;29.10;50.20
44509;DHT22;30214;52.246;14.408;2022-08-02T13:47:26;29.10;50.90
44509;DHT22;30214;52.246;14.408;2022-08-02T13:49:53;29.00;53.30
44509;DHT22;30214;52.246;14.408;2022-08-02T13:52:20;28.90;52.60
44509;DHT22;30214;52.246;14.408;2022-08-02T13:54:47;28.80;51.30
44509;DHT22;30214;52.246;14.408;2022-08-02T13:57:17;28.80;51.70
44509;DHT22;30214;52.246;14.408;2022-08-02T13:59:44;28.90;53.30
44509;DHT22;30214;52.246;14.408;2022-08-02T14:02:11;29.20;52.50
44509;DHT22;30214;52.246;14.408;2022-08-02T14:04:40;29.30;52.00
44509;DHT22;30214;52.246;14.408;2022-08-02T14:07:07;29.30;50.30
44509;DHT22;30214;52.246;14.408;2022-08-02T14:09:35;29.30;51.10
44509;DHT22;30214;52.246;14.408;2022-08-02T14:12:02;29.30;50.80
44509;DHT22;30214;52.246;14.408;2022-08-02T14:14:31;29.10;49.50
44509;DHT22;30214;52.246;14.408;2022-08-02T14:16:59;29.00;50.10
44509;DHT22;30214;52.246;14.408;2022-08-02T14:19:26;29.00;49.80
44509;DHT22;30214;52.246;14.408;2022-08-02T14:21:53;28.90;49.40
44509;DHT22;30214;52.246;14.408;2022-08-02T14:24:21;28.90;49.70
44509;DHT22;30214;52.246;14.408;2022-08-02T14:26:49;28.80;49.80
44509;DHT22;30214;52.246;14.408;2022-08-02T14:29:18;28.80;48.90
44509;DHT22;30214;52.246;14.408;2022-08-02T14:31:47;28.70;50.40
44509;DHT22;30214;52.246;14.408;2022-08-02T14:34:14;28.70;49.50
44509;DHT22;30214;52.246;14.408;2022-08-02T14:36:41;28.80;50.00
44509;DHT22;30214;52.246;14.408;2022-08-02T14:39:09;28.80;50.40
44509;DHT22;30214;52.246;14.408;2022-08-02T14:41:37;28.80;48.90
44509;DHT22;30214;52.246;14.408;2022-08-02T14:44:04;28.70;49.60
44509;DHT22;30214;52.246;14.408;2022-08-02T14:46:36;28.70;49.70
44509;DHT22;30214;52.246;14.408;2022-08-02T14:49:08;28.70;49.30
44509;DHT22;30214;52.246;14.408;2022-08-02T14:51:37;28.80;48.70
44509;DHT22;30214;52.246;14.408;2022-08-02T14:54:05;28.80;49.00
44509;DHT22;30214;52.246;14.408;2022-08-02T14:56:33;28.70;50.00
44509;DHT22;30214;52.246;14.408;2022-08-02T14:59:01;28.70;49.40
44509;DHT22;30214;52.246;14.408;2022-08-02T15:01:28;28.80;47.60
44509;DHT22;30214;52.246;14.408;2022-08-02T15:03:56;28.80;47.50
44509;DHT22;30214;52.246;14.408;2022-08-02T15:06:25;28.70;47.80
44509;DHT22;30214;52.246;14.408;2022-08-02T15:08:57;28.70;49.30
44509;DHT22;30214;52.246;14.408;2022-08-02T15:11:25;28.70;47.30
44509;DHT22;30214;52.246;14.408;2022-08-02T15:13:52;28.60;48.70
44509;DHT22;30214;52.246;14.408;2022-08-02T15:16:21;28.50;49.20
44509;DHT22;30214;52.246;14.408;2022-08-02T15:18:48;28.40;48.50
44509;DHT22;30214;52.246;14.408;2022-08-02T15:21:16;28.40;48.50
44509;DHT22;30214;52.246;14.408;2022-08-02T15:23:44;28.40;48.60
44509;DHT22;30214;52.246;14.408;2022-08-02T15:26:11;28.30;47.70
44509;DHT22;30214;52.246;14.408;2022-08-02T15:28:39;28.30;47.50
44509;DHT22;30214;52.246;14.408;2022-08-02T15:31:06;28.30;46.90